createdAt,value
2023-05-06T00:00:43.758Z,2.20
2023-05-06T00:03:20.084Z,2.72
2023-05-06T00:05:52.553Z,2.50
2023-05-06T00:08:25.517Z,2.40
2023-05-06T00:10:55.770Z,2.78
2023-05-06T00:13:25.090Z,3.30
2023-05-06T00:15:56.555Z,2.70
2023-05-06T00:18:28.458Z,2.38
2023-05-06T00:20:59.353Z,2.65
2023-05-06T00:23:30.189Z,3.50
2023-05-06T00:26:00.646Z,3.05
2023-05-06T00:28:30.456Z,3.72
2023-05-06T00:31:01.646Z,2.90
2023-05-06T00:33:31.389Z,2.90
2023-05-06T00:36:01.481Z,2.90
2023-05-06T00:38:32.215Z,2.78
2023-05-06T00:41:01.977Z,2.60
2023-05-06T00:43:31.930Z,3.10
2023-05-06T00:46:03.415Z,2.67
2023-05-06T00:48:41.590Z,2.80
2023-05-06T00:51:29.616Z,2.70
2023-05-06T00:54:04.969Z,3.15
2023-05-06T00:56:35.502Z,3.03
2023-05-06T00:59:05.800Z,2.97
2023-05-06T01:01:40.915Z,2.70
2023-05-06T01:04:24.332Z,3.15
2023-05-06T01:07:09.932Z,2.72
2023-05-06T01:09:53.205Z,3.17
2023-05-06T01:12:33.271Z,3.78
2023-05-06T01:15:10.281Z,2.95
2023-05-06T01:17:45.111Z,4.22
2023-05-06T01:20:16.204Z,2.67
2023-05-06T01:22:47.273Z,2.30
2023-05-06T01:25:22.612Z,2.85
2023-05-06T01:27:53.752Z,2.85
2023-05-06T01:30:28.167Z,3.20
2023-05-06T01:33:06.349Z,3.35
2023-05-06T01:35:42.860Z,3.28
2023-05-06T01:38:22.105Z,3.75
2023-05-06T01:40:57.122Z,3.35
2023-05-06T01:43:31.834Z,2.67
2023-05-06T01:46:03.173Z,2.78
2023-05-06T01:48:35.740Z,2.63
2023-05-06T01:51:05.997Z,3.15
2023-05-06T01:53:38.160Z,3.13
2023-05-06T01:56:11.579Z,2.90
2023-05-06T01:58:42.780Z,2.33
2023-05-06T02:01:12.777Z,2.70
2023-05-06T02:03:42.672Z,2.83
2023-05-06T02:06:12.047Z,2.95
2023-05-06T02:08:41.767Z,3.35
2023-05-06T02:11:14.300Z,2.90
2023-05-06T02:13:47.359Z,3.00
2023-05-06T02:16:18.815Z,2.95
2023-05-06T02:18:50.350Z,2.33
2023-05-06T02:21:20.115Z,4.60
2023-05-06T02:23:50.333Z,3.17
2023-05-06T02:26:21.311Z,3.30
2023-05-06T02:28:50.968Z,3.38
2023-05-06T02:31:20.756Z,2.95
2023-05-06T02:33:51.166Z,3.10
2023-05-06T02:36:21.773Z,3.45
2023-05-06T02:38:54.403Z,3.03
2023-05-06T02:41:26.188Z,3.25
2023-05-06T02:43:56.006Z,2.97
2023-05-06T02:46:25.390Z,2.63
2023-05-06T02:48:55.871Z,2.95
2023-05-06T02:51:27.417Z,3.00
2023-05-06T02:53:59.008Z,3.03
2023-05-06T02:56:31.514Z,3.92
2023-05-06T02:59:01.696Z,2.80
2023-05-06T03:01:31.344Z,3.53
2023-05-06T03:04:02.752Z,2.60
2023-05-06T03:06:34.438Z,2.95
2023-05-06T03:09:07.012Z,2.80
2023-05-06T03:11:38.475Z,3.30
2023-05-06T03:14:08.419Z,2.58
2023-05-06T03:16:37.725Z,3.00
2023-05-06T03:19:07.652Z,3.08
2023-05-06T03:21:38.773Z,2.95
2023-05-06T03:24:10.168Z,3.03
2023-05-06T03:26:42.309Z,4.55
2023-05-06T03:29:13.428Z,2.97
2023-05-06T03:31:47.485Z,3.15
2023-05-06T03:34:18.287Z,2.83
2023-05-06T03:36:49.656Z,2.85
2023-05-06T03:39:21.222Z,2.90
2023-05-06T03:41:52.451Z,2.35
2023-05-06T03:44:22.248Z,3.33
2023-05-06T03:46:52.780Z,3.08
2023-05-06T03:49:22.875Z,2.22
2023-05-06T03:51:53.613Z,2.75
2023-05-06T03:56:56.926Z,2.38
2023-05-06T03:59:30.285Z,2.83
2023-05-06T04:02:01.389Z,2.78
2023-05-06T04:04:55.220Z,2.22
2023-05-06T04:07:25.397Z,3.10
2023-05-06T04:09:55.002Z,2.20
2023-05-06T04:12:27.785Z,2.55
2023-05-06T04:14:58.199Z,1.92
2023-05-06T04:17:28.849Z,2.33
2023-05-06T04:19:58.106Z,2.30
2023-05-06T04:22:29.402Z,3.20
2023-05-06T04:25:01.158Z,2.50
2023-05-06T04:27:32.627Z,2.35
2023-05-06T04:30:03.355Z,3.22
2023-05-06T04:32:34.463Z,2.05
2023-05-06T04:35:04.229Z,2.13
2023-05-06T04:37:34.177Z,2.20
2023-05-06T04:40:04.863Z,2.75
2023-05-06T04:42:35.973Z,2.25
2023-05-06T04:45:05.965Z,2.10
2023-05-06T04:47:36.892Z,1.92
2023-05-06T04:50:07.077Z,2.05
2023-05-06T04:52:37.723Z,2.53
2023-05-06T04:55:08.152Z,2.00
2023-05-06T05:00:14.110Z,1.85
2023-05-06T05:02:44.564Z,1.88
2023-05-06T05:05:14.078Z,2.07
2023-05-06T05:07:44.210Z,1.73
2023-05-06T05:10:13.902Z,1.98
2023-05-06T05:12:47.134Z,1.40
2023-05-06T05:15:17.498Z,1.60
2023-05-06T05:17:48.987Z,2.17
2023-05-06T05:20:21.637Z,2.30
2023-05-06T05:22:58.680Z,1.50
2023-05-06T05:25:34.836Z,1.70
2023-05-06T05:28:15.694Z,1.95
2023-05-06T05:30:45.774Z,1.73
2023-05-06T05:33:16.323Z,1.83
2023-05-06T05:35:48.383Z,1.45
2023-05-06T05:38:19.710Z,1.83
2023-05-06T05:40:50.221Z,2.10
2023-05-06T05:43:23.066Z,2.05
2023-05-06T05:45:55.582Z,1.67
2023-05-06T05:48:29.706Z,1.63
2023-05-06T05:51:00.162Z,1.75
2023-05-06T05:53:29.591Z,1.55
2023-05-06T05:55:59.570Z,1.23
2023-05-06T05:58:30.647Z,1.20
2023-05-06T06:01:00.442Z,1.88
2023-05-06T06:03:32.031Z,1.48
2023-05-06T06:06:02.884Z,2.45
2023-05-06T06:08:36.669Z,1.73
2023-05-06T06:11:09.358Z,1.13
2023-05-06T06:13:41.971Z,1.20
2023-05-06T06:16:13.273Z,2.58
2023-05-06T06:18:42.497Z,1.25
2023-05-06T06:21:13.696Z,0.98
2023-05-06T06:23:43.265Z,1.05
2023-05-06T06:26:14.651Z,2.00
2023-05-06T06:28:46.253Z,1.13
2023-05-06T06:31:17.588Z,0.98
2023-05-06T06:33:47.463Z,1.52
2023-05-06T06:36:17.676Z,1.25
2023-05-06T06:38:47.424Z,0.88
2023-05-06T06:41:17.517Z,0.95
2023-05-06T06:43:48.618Z,0.90
2023-05-06T06:46:19.152Z,1.40
2023-05-06T06:48:49.394Z,1.63
2023-05-06T06:51:19.729Z,1.58
2023-05-06T06:53:50.086Z,2.08
2023-05-06T06:56:21.798Z,2.13
2023-05-06T06:58:53.683Z,1.95
2023-05-06T07:01:23.592Z,1.45
2023-05-06T07:03:53.199Z,1.33
2023-05-06T07:06:23.058Z,1.13
2023-05-06T07:08:52.590Z,1.40
2023-05-06T07:11:23.156Z,1.60
2023-05-06T07:14:01.425Z,2.20
2023-05-06T07:16:31.463Z,1.30
2023-05-06T07:19:01.488Z,1.25
2023-05-06T07:21:32.537Z,1.48
2023-05-06T07:24:02.194Z,0.95
2023-05-06T07:26:31.915Z,1.52
2023-05-06T07:29:04.600Z,1.30
2023-05-06T07:31:35.309Z,1.25
2023-05-06T07:34:05.131Z,1.08
2023-05-06T07:36:40.959Z,1.35
2023-05-06T07:39:11.382Z,1.13
2023-05-06T07:41:42.460Z,1.42
2023-05-06T07:44:14.536Z,1.40
2023-05-06T07:46:46.942Z,1.27
2023-05-06T07:49:24.486Z,1.45
2023-05-06T07:51:58.358Z,1.15
2023-05-06T07:54:30.286Z,1.08
2023-05-06T07:57:03.157Z,1.23
2023-05-06T07:59:49.904Z,1.15
2023-05-06T08:02:27.357Z,1.60
2023-05-06T08:05:04.577Z,1.33
2023-05-06T08:07:38.982Z,1.45
2023-05-06T08:10:11.340Z,1.13
2023-05-06T08:12:47.753Z,1.58
2023-05-06T08:15:25.397Z,1.42
2023-05-06T08:17:57.508Z,1.02
2023-05-06T08:20:37.132Z,1.42
2023-05-06T08:23:09.211Z,5.00
2023-05-06T08:25:43.483Z,1.20
2023-05-06T08:28:25.205Z,1.30
2023-05-06T08:31:02.708Z,1.13
2023-05-06T08:33:38.391Z,1.77
2023-05-06T08:36:15.659Z,2.30
2023-05-06T08:39:00.946Z,1.08
2023-05-06T08:41:32.093Z,1.75
2023-05-06T08:44:10.944Z,1.92
2023-05-06T08:46:44.923Z,1.58
2023-05-06T08:49:15.334Z,1.15
2023-05-06T08:52:05.472Z,1.35
2023-05-06T08:54:42.669Z,1.23
2023-05-06T08:57:14.020Z,1.38
2023-05-06T09:02:27.186Z,1.17
2023-05-06T09:05:05.731Z,1.15
2023-05-06T09:07:42.444Z,1.60
2023-05-06T09:10:23.761Z,1.40
2023-05-06T09:12:57.000Z,1.17
2023-05-06T09:15:27.490Z,1.63
2023-05-06T09:17:58.901Z,1.52
2023-05-06T09:20:43.637Z,1.02
2023-05-06T09:23:14.742Z,1.20
2023-05-06T09:25:44.543Z,1.50
2023-05-06T09:28:16.050Z,1.02
2023-05-06T09:30:52.335Z,1.50
2023-05-06T09:33:23.835Z,1.50
2023-05-06T09:35:53.902Z,1.48
2023-05-06T09:38:26.313Z,1.40
2023-05-06T09:40:55.663Z,1.40
2023-05-06T09:43:27.316Z,1.23
2023-05-06T09:45:56.727Z,1.50
2023-05-06T09:48:35.986Z,1.52
2023-05-06T09:51:07.858Z,1.50
2023-05-06T09:53:38.936Z,1.70
2023-05-06T09:56:25.542Z,1.40
2023-05-06T09:58:57.413Z,1.48
2023-05-06T10:01:45.229Z,1.98
2023-05-06T10:04:19.272Z,1.40
2023-05-06T10:06:52.055Z,1.58
2023-05-06T10:09:27.384Z,1.50
2023-05-06T10:11:57.445Z,1.35
2023-05-06T10:14:29.880Z,1.60
2023-05-06T10:17:02.393Z,1.48
2023-05-06T10:19:55.303Z,2.10
2023-05-06T10:22:49.502Z,2.33
2023-05-06T10:25:25.310Z,2.20
2023-05-06T10:27:56.035Z,2.20
2023-05-06T10:30:28.314Z,1.67
2023-05-06T10:33:01.143Z,2.22
2023-05-06T10:35:44.470Z,2.00
2023-05-06T10:38:23.881Z,2.42
2023-05-06T10:40:54.901Z,2.50
2023-05-06T10:43:29.926Z,2.55
2023-05-06T10:46:14.093Z,2.17
2023-05-06T10:49:16.704Z,1.83
2023-05-06T10:51:49.953Z,1.95
2023-05-06T10:54:25.948Z,2.00
2023-05-06T10:57:12.218Z,2.15
2023-05-06T10:59:48.154Z,2.53
2023-05-06T11:02:21.213Z,2.47
2023-05-06T11:05:15.586Z,2.67
2023-05-06T11:07:54.282Z,2.25
2023-05-06T11:10:34.361Z,1.73
2023-05-06T11:13:22.810Z,2.55
2023-05-06T11:16:11.633Z,2.42
2023-05-06T11:18:45.631Z,2.15
2023-05-06T11:21:40.449Z,1.58
2023-05-06T11:24:14.530Z,1.95
2023-05-06T11:26:45.212Z,1.58
2023-05-06T11:29:30.702Z,2.13
2023-05-06T11:32:02.272Z,1.80
2023-05-06T11:34:38.748Z,1.90
2023-05-06T11:37:09.885Z,1.75
2023-05-06T11:39:41.226Z,1.50
2023-05-06T11:42:10.751Z,1.63
2023-05-06T11:44:41.140Z,1.70
2023-05-06T11:47:10.873Z,1.50
2023-05-06T11:49:42.975Z,2.05
2023-05-06T11:52:13.846Z,2.03
2023-05-06T11:54:45.125Z,2.15
2023-05-06T11:59:58.310Z,1.90
2023-05-06T12:02:30.698Z,1.95
2023-05-06T12:05:04.411Z,1.58
2023-05-06T12:07:34.135Z,1.55
2023-05-06T12:10:09.518Z,1.53
2023-05-06T12:12:39.182Z,2.13
2023-05-06T12:15:10.470Z,1.88
2023-05-06T12:17:40.232Z,1.75
2023-05-06T12:20:13.504Z,1.33
2023-05-06T12:22:43.180Z,1.50
2023-05-06T12:25:21.920Z,1.50
2023-05-06T12:27:51.328Z,2.40
2023-05-06T12:30:31.833Z,2.22
2023-05-06T12:33:02.083Z,2.03
2023-05-06T12:35:34.363Z,1.75
2023-05-06T12:38:12.940Z,1.70
2023-05-06T12:40:46.693Z,2.92
2023-05-06T12:43:15.960Z,1.73
2023-05-06T12:46:05.025Z,2.65
2023-05-06T12:48:34.813Z,2.00
2023-05-06T12:51:20.190Z,2.38
2023-05-06T12:53:49.674Z,1.70
2023-05-06T12:56:21.957Z,2.58
2023-05-06T12:59:01.227Z,2.65
2023-05-06T13:01:31.911Z,2.30
2023-05-06T13:04:02.566Z,1.58
2023-05-06T13:06:38.099Z,2.30
2023-05-06T13:09:12.664Z,2.10
2023-05-06T13:11:52.318Z,2.30
2023-05-06T13:14:22.136Z,2.03
2023-05-06T13:16:52.977Z,2.00
2023-05-06T13:19:32.290Z,1.60
2023-05-06T13:22:03.178Z,1.92
2023-05-06T13:24:33.734Z,2.80
2023-05-06T13:27:06.702Z,2.33
2023-05-06T13:29:46.699Z,2.33
2023-05-06T13:32:27.919Z,3.40
2023-05-06T13:37:33.270Z,2.22
2023-05-06T13:40:03.599Z,2.53
2023-05-06T13:42:34.866Z,3.03
2023-05-06T13:45:13.679Z,1.55
2023-05-06T13:47:44.463Z,2.97
2023-05-06T13:50:13.806Z,2.30
2023-05-06T13:52:46.649Z,1.90
2023-05-06T13:55:31.967Z,2.72
2023-05-06T13:58:07.141Z,2.78
2023-05-06T14:00:49.724Z,3.25
2023-05-06T14:03:30.978Z,2.72
2023-05-06T14:06:06.986Z,3.65
2023-05-06T14:08:46.183Z,2.85
2023-05-06T14:11:17.088Z,2.58
2023-05-06T14:13:49.991Z,2.55
2023-05-06T14:16:19.690Z,2.80
2023-05-06T14:18:49.715Z,3.00
2023-05-06T14:21:19.195Z,3.05
2023-05-06T14:23:48.913Z,3.58
2023-05-06T14:26:18.320Z,3.22
2023-05-06T14:28:49.430Z,3.72
2023-05-06T14:31:18.809Z,3.10
2023-05-06T14:33:49.252Z,3.88
2023-05-06T14:36:20.985Z,3.33
2023-05-06T14:38:50.918Z,3.05
2023-05-06T14:41:24.964Z,2.95
2023-05-06T14:43:56.936Z,2.42
2023-05-06T14:46:29.140Z,2.67
2023-05-06T14:48:59.596Z,2.10
2023-05-06T14:51:28.994Z,2.47
2023-05-06T14:53:59.373Z,2.35
2023-05-06T14:56:29.523Z,2.28
2023-05-06T14:59:03.117Z,2.27
2023-05-06T15:01:40.861Z,3.20
2023-05-06T15:04:11.699Z,2.72
2023-05-06T15:06:43.203Z,2.28
2023-05-06T15:09:13.671Z,1.85
2023-05-06T15:11:44.491Z,2.80
2023-05-06T15:14:15.952Z,2.55
2023-05-06T15:16:45.262Z,1.95
2023-05-06T15:19:15.383Z,2.17
2023-05-06T15:21:44.694Z,2.50
2023-05-06T15:24:14.790Z,2.17
2023-05-06T15:26:44.316Z,1.90
2023-05-06T15:29:16.055Z,2.28
2023-05-06T15:31:46.636Z,2.22
2023-05-06T15:34:16.741Z,3.33
2023-05-06T15:36:47.315Z,1.85
2023-05-06T15:41:46.510Z,2.70
2023-05-06T15:44:20.679Z,2.03
2023-05-06T15:46:50.386Z,2.05
2023-05-06T15:49:48.825Z,2.10
2023-05-06T15:52:09.240Z,2.67
2023-05-06T15:54:39.975Z,2.53
2023-05-06T15:57:11.818Z,2.83
2023-05-06T15:59:42.981Z,2.20
2023-05-06T16:02:26.750Z,1.98
2023-05-06T16:04:57.451Z,2.55
2023-05-06T16:07:28.085Z,1.70
2023-05-06T16:09:57.732Z,3.42
2023-05-06T16:12:27.107Z,2.42
2023-05-06T16:14:58.194Z,2.25
2023-05-06T16:17:27.565Z,2.28
2023-05-06T16:19:57.537Z,2.30
2023-05-06T16:22:27.529Z,2.30
2023-05-06T16:24:58.145Z,1.73
2023-05-06T16:27:31.541Z,2.22
2023-05-06T16:30:04.130Z,1.85
2023-05-06T16:32:35.666Z,2.50
2023-05-06T16:35:11.258Z,2.60
2023-05-06T16:37:41.491Z,2.67
2023-05-06T16:40:22.463Z,2.60
2023-05-06T16:43:02.120Z,2.65
2023-05-06T16:45:36.435Z,2.95
2023-05-06T16:48:15.028Z,2.95
2023-05-06T16:50:46.997Z,3.55
2023-05-06T16:53:21.281Z,2.20
2023-05-06T16:56:04.599Z,2.40
2023-05-06T16:58:35.062Z,2.50
2023-05-06T17:01:18.020Z,2.85
2023-05-06T17:03:56.553Z,3.03
2023-05-06T17:06:31.760Z,2.53
2023-05-06T17:09:05.168Z,2.72
2023-05-06T17:11:48.919Z,3.22
2023-05-06T17:14:21.117Z,3.30
2023-05-06T17:17:04.425Z,2.92
2023-05-06T17:19:39.226Z,2.63
2023-05-06T17:22:09.634Z,3.03
2023-05-06T17:24:39.323Z,2.53
2023-05-06T17:27:09.336Z,2.47
2023-05-06T17:29:46.443Z,2.20
2023-05-06T17:32:17.984Z,2.63
2023-05-06T17:34:47.620Z,2.47
2023-05-06T17:37:17.333Z,2.83
2023-05-06T17:40:00.769Z,2.92
2023-05-06T17:42:30.778Z,2.60
2023-05-06T17:45:00.422Z,2.78
2023-05-06T17:47:32.144Z,2.25
2023-05-06T17:50:02.548Z,2.28
2023-05-06T17:52:33.906Z,2.85
2023-05-06T17:55:15.395Z,2.40
2023-05-06T17:57:47.491Z,2.70
2023-05-06T18:00:19.017Z,2.30
2023-05-06T18:02:50.614Z,2.50
2023-05-06T18:05:22.452Z,2.50
2023-05-06T18:07:52.962Z,2.90
2023-05-06T18:10:22.817Z,3.67
2023-05-06T18:12:55.928Z,2.95
2023-05-06T18:15:25.795Z,2.20
2023-05-06T18:17:57.435Z,3.53
2023-05-06T18:22:59.723Z,3.22
2023-05-06T18:25:29.093Z,2.97
2023-05-06T18:27:58.829Z,2.47
2023-05-06T18:30:28.110Z,3.40
2023-05-06T18:33:00.226Z,3.30
2023-05-06T18:35:29.541Z,3.30
2023-05-06T18:37:59.243Z,3.03
2023-05-06T18:40:38.297Z,3.45
2023-05-06T18:43:27.864Z,5.85
2023-05-06T18:46:01.197Z,3.33
2023-05-06T18:48:42.543Z,2.60
2023-05-06T18:51:22.424Z,3.25
2023-05-06T18:54:20.494Z,3.77
2023-05-06T18:56:53.156Z,3.78
2023-05-06T18:59:32.345Z,4.50
2023-05-06T19:02:14.333Z,4.75
2023-05-06T19:04:58.540Z,4.57
2023-05-06T19:07:33.578Z,3.65
2023-05-06T19:10:27.299Z,4.45
2023-05-06T19:12:57.612Z,4.93
2023-05-06T19:15:32.363Z,5.05
2023-05-06T19:18:04.300Z,5.90
2023-05-06T19:20:45.247Z,8.40
2023-05-06T19:23:27.124Z,6.65
2023-05-06T19:26:03.011Z,8.27
2023-05-06T19:28:42.397Z,7.93
2023-05-06T19:31:16.619Z,8.68
2023-05-06T19:33:47.757Z,7.00
2023-05-06T19:36:19.380Z,6.25
2023-05-06T19:38:50.086Z,6.13
2023-05-06T19:41:22.130Z,6.95
2023-05-06T19:44:03.570Z,5.55
2023-05-06T19:46:38.330Z,4.75
2023-05-06T19:49:18.130Z,6.00
2023-05-06T19:51:50.400Z,7.97
2023-05-06T19:54:27.455Z,8.00
2023-05-06T19:57:02.859Z,5.57
2023-05-06T19:59:39.469Z,6.68
2023-05-06T20:02:13.768Z,5.78
2023-05-06T20:04:47.570Z,6.38
2023-05-06T20:07:23.047Z,4.88
2023-05-06T20:09:55.666Z,5.30
2023-05-06T20:12:26.674Z,5.93
2023-05-06T20:14:56.629Z,5.70
2023-05-06T20:17:28.629Z,4.72
2023-05-06T20:20:00.445Z,5.32
2023-05-06T20:22:34.182Z,4.50
2023-05-06T20:25:20.348Z,3.88
2023-05-06T20:27:59.697Z,4.75
2023-05-06T20:30:30.052Z,5.00
2023-05-06T20:33:01.357Z,5.32
2023-05-06T20:35:31.026Z,4.87
2023-05-06T20:38:03.024Z,5.35
2023-05-06T20:40:33.230Z,6.20
2023-05-06T20:43:04.618Z,6.15
2023-05-06T20:45:34.829Z,5.57
2023-05-06T20:48:12.334Z,5.43
2023-05-06T20:50:44.369Z,4.70
2023-05-06T20:53:16.977Z,5.25
2023-05-06T20:55:46.821Z,4.72
2023-05-06T20:58:16.726Z,5.78
2023-05-06T21:00:57.580Z,4.57
2023-05-06T21:03:33.011Z,5.63
2023-05-06T21:06:04.450Z,7.25
2023-05-06T21:08:43.855Z,4.32
2023-05-06T21:11:14.684Z,6.38
2023-05-06T21:14:06.858Z,4.50
2023-05-06T21:16:52.045Z,4.90
2023-05-06T21:19:22.417Z,4.20
2023-05-06T21:21:52.573Z,4.80
2023-05-06T21:24:27.794Z,5.35
2023-05-06T21:27:00.305Z,4.90
2023-05-06T21:29:32.686Z,5.32
2023-05-06T21:32:07.984Z,5.05
2023-05-06T21:34:40.321Z,5.63
2023-05-06T21:37:13.180Z,5.20
2023-05-06T21:39:48.218Z,5.88
2023-05-06T21:42:23.862Z,5.43
2023-05-06T21:44:55.838Z,5.35
2023-05-06T21:47:28.331Z,5.15
2023-05-06T21:50:00.514Z,5.93
2023-05-06T21:52:31.448Z,5.93
2023-05-06T21:55:04.338Z,5.28
2023-05-06T21:57:35.344Z,5.97
2023-05-06T22:00:13.399Z,6.28
2023-05-06T22:02:44.965Z,6.90
2023-05-06T22:05:17.018Z,5.20
2023-05-06T22:07:48.945Z,5.75
2023-05-06T22:10:23.700Z,5.88
2023-05-06T22:12:56.359Z,5.35
2023-05-06T22:15:31.785Z,5.57
2023-05-06T22:18:02.132Z,7.07
2023-05-06T22:20:34.428Z,6.05
2023-05-06T22:23:09.845Z,6.35
2023-05-06T22:25:43.845Z,7.75
2023-05-06T22:28:15.583Z,6.10
2023-05-06T22:30:47.686Z,6.53
2023-05-06T22:33:18.816Z,5.80
2023-05-06T22:35:52.961Z,6.05
2023-05-06T22:38:24.004Z,5.97
2023-05-06T22:40:59.241Z,6.75
2023-05-06T22:43:30.545Z,6.05
2023-05-06T22:46:02.801Z,6.32
2023-05-06T22:48:36.361Z,6.93
2023-05-06T22:51:08.586Z,6.55
2023-05-06T22:58:44.289Z,5.22
2023-05-06T23:01:17.307Z,5.70
2023-05-06T23:03:48.943Z,5.43
2023-05-06T23:06:20.904Z,5.10
2023-05-06T23:08:52.771Z,5.50
2023-05-06T23:11:26.494Z,5.72
2023-05-06T23:13:58.301Z,5.70
2023-05-06T23:16:32.431Z,6.35
2023-05-06T23:19:06.531Z,6.82
2023-05-06T23:21:37.983Z,5.78
2023-05-06T23:24:09.416Z,5.97
2023-05-06T23:26:42.744Z,6.68
2023-05-06T23:29:13.656Z,5.47
2023-05-06T23:31:46.708Z,5.38
2023-05-06T23:34:18.402Z,5.80
2023-05-06T23:36:49.030Z,4.70
2023-05-06T23:41:53.816Z,5.90
2023-05-06T23:44:26.056Z,5.55
2023-05-06T23:46:56.417Z,5.68
2023-05-06T23:49:25.756Z,6.68
2023-05-06T23:54:44.566Z,5.57
2023-05-06T23:57:15.766Z,5.10
2023-05-06T23:59:45.077Z,5.60
